Latest Coastal Weather Observations for Neptune Island

IDS60701

Issued at 12:41 am CDT Monday 23 January 2017 (issued every 10 minutes, with the page automatically refreshed every 10 minutes)

About coastal observations | Map of coastal stations | Coastal observations for SA | Marine services | Other Formats
Station Details ID: 018115 Name: NEPTUNE ISLAND Lat: -35.34 Lon: 136.12 Height: 32.0 m
Data from the previous 72 hours. | See also: Recent months at Neptune Island
Date/Time
CDT
Temp
°C
Wind Pressure Rain since
9am
mm
Weather Cloud Vis
km
Sea
Height
m
Swell
Dir  Spd
kts
Gust
kts
hPa Trend Height
m
Period
s
Dir
23/12:30am 20.0 ENE 6 6 1006.5 - 3.0 - - - - - - -
23/12:00am 19.8 E 7 8 1006.7 - 3.0 - - - - - - -
 
Date/Time
CDT
Temp
°C
Wind Pressure Rain since
9am
mm
Weather Cloud Vis
km
Sea
Height
m
Swell
Dir  Spd
kts
Gust
kts
hPa Trend Height
m
Period
s
Dir
22/11:30pm 19.8 E 9 10 1006.8 - 3.0 - - - - - - -
22/11:00pm 19.7 E 7 8 1007.1 - 3.0 - - - - - - -
22/10:30pm 19.6 ESE 6 7 1007.4 - 3.0 - - - - - - -
22/10:00pm 19.3 SE 10 12 1006.9 - 3.0 - - - - - - -
22/09:30pm 19.3 ESE 8 11 1007.6 - 3.0 - - - - - - -
22/09:00pm 19.3 SE 9 11 1007.7 - 3.0 - - - - - - -
22/08:30pm 19.1 SE 12 14 1007.4 - 3.0 - - - - - - -
22/08:00pm 19.2 ESE 9 11 1007.6 - 3.0 - - - - - - -
22/07:30pm 19.2 SSE 7 9 1007.7 - 3.0 - - - - - - -
22/07:00pm 19.3 S 6 7 1008.3 - 2.8 - - - - - - -
22/06:30pm 19.5 WSW 5 7 1008.9 - 2.0 - - - - - - -
22/06:00pm 19.6 W 5 6 1009.2 - 1.8 Rain - - - - - -
22/05:30pm 20.0 WNW 8 9 1009.6 - 0.2 - - - - - - -
22/05:00pm 20.8 W 11 12 1009.4 - 0.0 - - - - - - -
22/04:30pm 21.1 NW 14 18 1009.7 - 0.0 - - - - - - -
22/04:00pm 22.5 WNW 9 10 1009.5 - 0.0 - - - - - - -
22/03:30pm 22.5 W 5 7 1009.4 - 0.0 - - - - - - -
22/03:00pm 23.6 W 3 5 1009.3 - 0.0 - - - - - - -
22/02:30pm 23.3 WNW 4 6 1009.3 - 0.0 - - - - - - -
22/02:00pm 23.0 NNE 6 8 1009.1 - 0.0 - - - - - - -
22/01:30pm 22.9 NE 7 9 1009.1 - 0.0 - - - - - - -
22/01:00pm 22.3 NE 8 11 1009.3 - 0.0 - - - - - - -
22/12:30pm 21.4 NE 8 12 1009.5 - 0.0 - - - - - - -
22/12:00pm 22.0 NE 9 12 1009.6 - 0.0 - - - - - - -
22/11:30am 21.9 NE 12 15 1009.9 - 0.0 - - - - - - -
22/11:00am 22.5 NE 12 15 1010.1 - 0.0 - - - - - - -
22/10:30am 21.5 NE 15 17 1010.2 - 0.0 - - - - - - -
22/10:00am 21.0 ENE 13 15 1010.4 - 0.0 - - - - - - -
22/09:30am 20.6 ENE 13 15 1010.6 - 0.0 - - - - - - -
22/09:00am 20.8 ENE 13 14 1010.8 - 0.0 - - - - - - -
22/08:30am 20.0 ENE 10 12 1011.1 - 0.0 - - - - - - -
22/08:00am 20.0 ENE 9 11 1011.1 - 0.0 - - - - - - -
22/07:30am 19.5 ENE 11 13 1010.7 - 0.0 - - - - - - -
22/07:00am 19.1 ENE 11 13 1010.7 - 0.0 - - - - - - -
22/06:30am 18.8 ENE 12 14 1010.7 - 0.0 - - - - - - -
22/06:00am 18.8 ENE 13 15 1010.7 - 0.0 - - - - - - -
22/05:30am 18.9 ENE 13 15 1010.6 - 0.0 - - - - - - -
22/05:00am 18.9 ENE 14 16 1010.4 - 0.0 - - - - - - -
22/04:30am 18.7 E 16 21 1010.0 - 0.0 - - - - - - -
22/04:00am 18.6 E 17 21 1010.2 - 0.0 - - - - - - -
22/03:30am 18.4 E 17 19 1010.3 - 0.0 - - - - - - -
22/03:00am 18.2 E 15 18 1010.7 - 0.0 - - - - - - -
22/02:30am 18.1 E 15 19 1011.2 - 0.0 - - - - - - -
22/02:00am 17.8 E 13 16 1011.7 - 0.0 - - - - - - -
22/01:30am 17.8 E 13 16 1012.2 - 0.0 - - - - - - -
22/01:00am 17.8 E 16 20 1012.3 - 0.0 - - - - - - -
22/12:30am 17.8 ESE 15 18 1012.3 - 0.0 - - - - - - -
22/12:00am 17.9 ESE 15 19 1012.5 - 0.0 - - - - - - -
 
Date/Time
CDT
Temp
°C
Wind Pressure Rain since
9am
mm
Weather Cloud Vis
km
Sea
Height
m
Swell
Dir  Spd
kts
Gust
kts
hPa Trend Height
m
Period
s
Dir
21/11:30pm 18.0 ESE 16 18 1012.6 - 0.0 - - - - - - -
21/11:00pm 18.3 SE 14 17 1013.1 - 0.0 - - - - - - -
21/10:30pm 18.4 SE 13 15 1013.5 - 0.0 - - - - - - -
21/10:00pm 18.6 SE 14 16 1013.5 - 0.0 - - - - - - -
21/09:30pm 18.8 SSE 14 18 1013.5 - 0.0 - - - - - - -
21/09:00pm 18.9 SSE 13 16 1013.5 - 0.0 - - - - - - -
21/08:30pm 19.0 SSE 14 17 1013.3 - 0.0 - - - - - - -
21/08:00pm 19.2 SSE 16 22 1013.0 - 0.0 - - - - - - -
21/07:30pm 19.3 SSE 18 23 1012.6 - 0.0 - - - - - - -
21/07:00pm 19.6 SSE 22 27 1012.2 - 0.0 - - - - - - -
21/06:30pm 19.8 SSE 22 26 1012.1 - 0.0 - - - - - - -
21/06:00pm 20.3 SSE 19 23 1012.4 - 0.0 - - - - - - -
21/05:30pm 20.7 SSE 17 21 1013.0 - 0.0 - - - - - - -
21/05:00pm 21.1 SSE 16 19 1013.2 - 0.0 - - - - - - -
21/04:30pm 21.2 SSE 13 16 1013.7 - 0.0 - - - - - - -
21/04:00pm 21.7 SSE 11 13 1014.1 - 0.0 - - - - - - -
21/03:30pm 21.1 S 10 13 1014.1 - 0.0 - - - - - - -
21/03:00pm 20.8 S 8 10 1014.5 - 0.0 - - - - - - -
21/02:30pm 20.5 S 6 8 1014.6 - 0.0 - - - - - - -
21/02:00pm 21.0 SSE 6 8 1014.7 - 0.0 - - - - - - -
21/01:30pm 20.9 SSE 6 8 1014.9 - 0.0 - - - - - - -
21/01:00pm 20.7 NE 5 7 1014.9 - 0.0 - - - - - - -
21/12:30pm 19.8 NE 6 8 1015.1 - 0.0 - - - - - - -
21/12:00pm 20.1 NE 8 11 1015.0 - 0.0 - - - - - - -
21/11:30am 19.7 NE 10 14 1014.6 - 0.0 - - - - - - -
21/11:00am 20.0 NE 11 13 1014.7 - 0.0 - - - - - - -
21/10:30am 20.2 NE 11 14 1014.8 - 0.0 - - - - - - -
21/10:00am 19.5 ENE 12 14 1014.7 - 0.0 - - - - - - -
21/09:30am 19.0 ENE 12 15 1014.8 - 0.0 - - - - - - -
21/09:00am 18.3 ENE 11 13 1015.0 - 0.0 - - - - - - -
21/08:30am 18.1 ENE 13 16 1014.9 - 0.0 - - - - - - -
21/08:00am 17.8 E 13 15 1014.4 - 0.0 - - - - - - -
21/07:30am 17.5 E 12 14 1014.1 - 0.0 - - - - - - -
21/07:00am 16.6 E 11 13 1013.9 - 0.0 - - - - - - -
21/06:30am 16.3 E 12 15 1013.5 - 0.0 - - - - - - -
21/06:00am 16.4 ESE 12 14 1013.5 - 0.0 - - - - - - -
21/05:30am 16.3 ESE 11 14 1013.2 - 0.0 - - - - - - -
21/05:00am 16.2 ESE 11 13 1013.1 - 0.0 - - - - - - -
21/04:30am 16.4 SE 11 14 1013.0 - 0.0 - - - - - - -
21/04:00am 16.6 SE 11 13 1013.2 - 0.0 - - - - - - -
21/03:30am 16.8 SE 13 15 1013.1 - 0.0 - - - - - - -
21/03:00am 17.1 SE 13 15 1013.1 - 0.0 - - - - - - -
21/02:30am 17.0 SSE 14 17 1013.2 - 0.0 - - - - - - -
21/02:00am 17.2 S 14 16 1013.3 - 0.0 - - - - - - -
21/01:30am 17.2 S 14 16 1013.4 - 0.0 - - - - - - -
21/01:00am 17.3 S 13 16 1013.4 - 0.0 - - - - - - -
21/12:30am 17.3 S 15 18 1013.3 - 0.0 - - - - - - -
21/12:00am 17.3 S 17 21 1013.1 - 0.0 - - - - - - -
 
Date/Time
CDT
Temp
°C
Wind Pressure Rain since
9am
mm
Weather Cloud Vis
km
Sea
Height
m
Swell
Dir  Spd
kts
Gust
kts
hPa Trend Height
m
Period
s
Dir
20/11:30pm 17.4 S 17 20 1013.0 - 0.0 - - - - - - -
20/11:00pm 17.3 SSW 16 19 1012.9 - 0.0 - - - - - - -
20/10:30pm 17.3 S 17 19 1012.7 - 0.0 - - - - - - -
20/10:00pm 17.4 S 17 19 1012.3 - 0.0 - - - - - - -
20/09:30pm 17.6 S 17 19 1011.9 - 0.0 - - - - - - -
20/09:00pm 17.5 S 17 19 1011.7 - 0.0 - - - - - - -
20/08:30pm 17.8 S 15 17 1011.6 - 0.0 - - - - - - -
20/08:00pm 17.8 S 15 18 1011.2 - 0.0 - - - - - - -
20/07:30pm 18.4 S 14 17 1010.9 - 0.0 - - - - - - -
20/07:00pm 18.5 SSW 15 17 1010.6 - 0.0 - - - - - - -
20/06:30pm 18.6 S 13 16 1010.2 - 0.0 - - - - - - -
20/06:00pm 18.8 S 13 16 1010.0 - 0.0 - - - - - - -
20/05:30pm 18.5 S 13 16 1009.9 - 0.0 - - - - - - -
20/05:00pm 18.6 SSW 14 17 1010.0 - 0.0 - - - - - - -
20/04:30pm 19.1 SSW 15 17 1009.8 - 0.0 - - - - - - -
20/04:00pm 18.8 SSW 13 15 1009.8 - 0.0 - - - - - - -
20/03:30pm 19.7 SSW 13 16 1009.7 - 0.0 - - - - - - -
20/03:00pm 19.7 SSW 13 15 1009.7 - 0.0 - - - - - - -
20/02:30pm 19.2 SSW 13 15 1009.6 - 0.0 - - - - - - -
20/02:00pm 19.3 SSW 13 16 1009.5 - 0.0 - - - - - - -
20/01:30pm 19.4 SSW 13 16 1009.5 - 0.0 - - - - - - -
20/01:00pm 18.5 SSW 15 17 1009.3 - 0.0 - - - - - - -
20/12:30pm 18.1 SSW 15 18 1009.2 - 0.0 - - - - - - -
20/12:00pm 17.6 SSW 16 19 1008.7 - 0.0 - - - - - - -
20/11:30am 18.2 S 17 19 1008.4 - 0.0 - - - - - - -
20/11:00am 17.8 S 17 21 1008.0 - 0.0 - - - - - - -
20/10:30am 17.0 S 17 19 1007.7 - 0.0 - - - - - - -
20/10:00am 16.1 SSW 17 21 1007.7 - 0.0 - - - - - - -
20/09:30am 15.9 SSW 23 27 1007.6 - 0.0 - - - - - - -
20/09:00am 17.0 S 19 25 1007.1 - 14.6 - - - - - - -
20/08:30am 17.1 S 20 24 1006.8 - 14.6 - - - - - - -
20/08:00am 17.4 S 24 28 1006.0 - 14.6 - - - - - - -
20/07:30am 17.0 S 20 24 1005.3 - 14.6 - - - - - - -
20/07:00am 16.4 S 21 25 1004.6 - 14.6 - - - - - - -
20/06:30am 16.9 S 23 27 1004.0 - 14.6 - - - - - - -
20/06:00am 16.8 SSW 23 29 1003.3 - 14.6 - - - - - - -
20/05:30am 16.8 SSW 24 29 1002.8 - 14.6 - - - - - - -
20/05:00am 16.8 SSW 24 28 1002.4 - 14.6 - - - - - - -
20/04:30am 16.8 SSW 24 29 1002.1 - 14.6 - - - - - - -
20/04:00am 17.1 SSW 23 28 1001.7 - 14.6 - - - - - - -
20/03:30am 17.1 SW 22 27 1001.6 - 14.6 - - - - - - -
20/03:00am 17.4 SW 22 25 1001.3 - 14.6 - - - - - - -
20/02:30am 17.3 SSW 17 21 1001.2 - 14.6 - - - - - - -
20/02:00am 17.4 SSW 11 13 1000.9 - 14.6 - - - - - - -
20/01:30am 17.4 SSW 11 13 1001.3 - 14.6 - - - - - - -
20/01:00am 17.3 S 7 9 1000.6 - 14.6 - - - - - - -

Other Formats:

Comma delimited format used in spreadsheet applications
http://www.bom.gov.au/fwo/IDS60701/IDS60701.94804.axf

JavaScript Object Notation format (JSON) in row-major order
http://www.bom.gov.au/fwo/IDS60701/IDS60701.94804.json